Time;durP1;ratioP1;P1;durP2;ratioP2;P2;SDS_P1;SDS_P2;PMS_P1;PMS_P2;Temp;Humidity;BMP_temperature;BMP_pressure;BME280_temperature;BME280_humidity;BME280_pressure;Samples;Min_cycle;Max_cycle;Signal;HPM_P1;HPM_P2
2022/04/01 00:01:05;;;;;;;1.20;1.05;;;;;7.60;100241.00;;;;4972774;28;20202;-73
2022/04/01 00:03:32;;;;;;;2.42;1.00;;;;;7.60;100253.00;;;;4969834;28;20198;-73
2022/04/01 00:06:01;;;;;;;2.65;1.17;;;;;7.50;100251.00;;;;4970524;28;20709;-72
2022/04/01 00:08:28;;;;;;;1.92;1.13;;;;;7.60;100265.00;;;;4970635;28;20285;-73
2022/04/01 00:10:56;;;;;;;1.48;0.95;;;;;7.60;100260.00;;;;4970656;28;20260;-73
2022/04/01 00:13:23;;;;;;;1.38;0.82;;;;;7.50;100258.00;;;;4970081;28;20265;-73
2022/04/01 00:15:51;;;;;;;1.70;0.90;;;;;7.50;100266.00;;;;4970629;28;20641;-73
2022/04/01 00:18:18;;;;;;;1.75;1.20;;;;;7.50;100268.00;;;;4974598;28;20202;-73
2022/04/01 00:20:45;;;;;;;1.77;1.20;;;;;7.40;100254.00;;;;4970279;28;20257;-72
2022/04/01 00:23:14;;;;;;;1.23;0.88;;;;;7.40;100274.00;;;;4969904;28;20202;-73
2022/04/01 00:25:42;;;;;;;2.92;1.25;;;;;7.40;100265.00;;;;4984014;28;20567;-74
2022/04/01 00:28:11;;;;;;;2.38;1.38;;;;;7.40;100271.00;;;;4972176;28;20281;-74
2022/04/01 00:30:39;;;;;;;1.45;1.15;;;;;7.40;100276.00;;;;4970869;28;20187;-72
2022/04/01 00:33:08;;;;;;;2.60;1.10;;;;;7.40;100268.00;;;;4970682;28;20716;-72
2022/04/01 00:35:35;;;;;;;1.35;1.17;;;;;7.40;100262.00;;;;4977518;28;20230;-74
2022/04/01 00:38:02;;;;;;;1.27;0.88;;;;;7.40;100265.00;;;;4970556;28;20217;-73
2022/04/01 00:40:31;;;;;;;1.27;1.05;;;;;7.30;100271.00;;;;4971029;28;20198;-73
2022/04/01 00:42:58;;;;;;;1.67;1.23;;;;;7.30;100284.00;;;;4970972;28;20212;-73
2022/04/01 00:45:26;;;;;;;1.33;1.20;;;;;7.30;100277.00;;;;4970492;28;20201;-73
2022/04/01 00:47:54;;;;;;;1.48;1.00;;;;;7.30;100277.00;;;;4970424;28;20199;-73
2022/04/01 00:50:22;;;;;;;0.98;0.70;;;;;7.30;100288.00;;;;4969381;28;20199;-73
2022/04/01 00:52:50;;;;;;;2.90;1.15;;;;;7.30;100288.00;;;;4970900;28;20225;-73
2022/04/01 00:55:17;;;;;;;1.98;1.10;;;;;7.30;100295.00;;;;4970659;28;20194;-74
2022/04/01 00:57:48;;;;;;;1.10;0.90;;;;;7.20;100285.00;;;;4969935;28;20202;-73
2022/04/01 01:00:19;;;;;;;1.10;1.00;;;;;7.30;100288.00;;;;4969708;28;20198;-73
2022/04/01 01:02:46;;;;;;;1.20;1.00;;;;;7.30;100295.00;;;;4970486;28;20707;-73
2022/04/01 01:05:15;;;;;;;1.10;1.00;;;;;7.30;100297.00;;;;4970339;28;20206;-73
2022/04/01 01:07:43;;;;;;;1.33;1.02;;;;;7.20;100294.00;;;;4971585;28;20467;-74
2022/04/01 01:10:13;;;;;;;1.30;0.90;;;;;7.20;100291.00;;;;4969860;28;20198;-73
2022/04/01 01:12:43;;;;;;;1.20;1.10;;;;;7.20;100298.00;;;;4969803;28;20226;-73
2022/04/01 01:15:13;;;;;;;1.10;0.85;;;;;7.20;100289.00;;;;4969678;28;20936;-73
2022/04/01 01:17:41;;;;;;;1.17;0.95;;;;;7.20;100303.00;;;;4969292;28;20589;-73
2022/04/01 01:20:14;;;;;;;1.63;1.02;;;;;7.10;100296.00;;;;4969797;28;20550;-73
2022/04/01 01:22:42;;;;;;;2.45;0.90;;;;;7.10;100299.00;;;;4970071;28;20198;-73
2022/04/01 01:25:15;;;;;;;1.35;0.98;;;;;7.10;100303.00;;;;4975197;28;20197;-73
2022/04/01 01:27:43;;;;;;;1.40;0.82;;;;;7.10;100292.00;;;;4982808;28;20198;-73
2022/04/01 01:30:11;;;;;;;2.03;1.25;;;;;7.10;100303.00;;;;4968123;28;20301;-73
2022/04/01 01:32:39;;;;;;;1.35;0.90;;;;;7.10;100303.00;;;;4960282;28;20214;-73
2022/04/01 01:35:09;;;;;;;2.50;1.10;;;;;7.10;100301.00;;;;4967893;28;20234;-73
2022/04/01 01:37:36;;;;;;;2.83;1.40;;;;;7.10;100304.00;;;;4970193;28;20281;-73
2022/04/01 01:40:06;;;;;;;2.10;1.27;;;;;7.10;100298.00;;;;4969950;28;20202;-72
2022/04/01 01:42:35;;;;;;;2.20;1.60;;;;;7.10;100303.00;;;;4976008;28;20612;-73
2022/04/01 01:45:05;;;;;;;1.35;1.00;;;;;7.10;100308.00;;;;4969242;28;20210;-73
2022/04/01 01:47:32;;;;;;;2.38;1.17;;;;;7.10;100305.00;;;;4969149;28;20206;-73
2022/04/01 01:55:30;;;;;;;1.20;1.00;;;;;7.10;100323.00;;;;4969574;28;20230;-74
2022/04/01 01:58:00;;;;;;;2.42;1.63;;;;;7.00;100316.00;;;;4968433;28;20201;-74
2022/04/01 02:00:27;;;;;;;1.23;1.00;;;;;7.10;100320.00;;;;4975810;28;20198;-73
2022/04/01 02:02:55;;;;;;;1.48;1.10;;;;;7.00;100323.00;;;;4970260;28;20214;-73
2022/04/01 02:05:22;;;;;;;1.63;1.20;;;;;7.00;100323.00;;;;4968101;28;20221;-73
2022/04/01 02:07:49;;;;;;;1.15;0.95;;;;;7.00;100331.00;;;;4977977;28;20214;-72
2022/04/01 02:10:17;;;;;;;1.85;1.13;;;;;7.00;100335.00;;;;4957116;28;20195;-72
2022/04/01 02:12:44;;;;;;;1.65;1.10;;;;;7.00;100331.00;;;;4969087;28;20194;-73
2022/04/01 02:15:13;;;;;;;1.42;1.10;;;;;6.90;100334.00;;;;4967992;28;20225;-73
2022/04/01 02:17:41;;;;;;;2.17;1.45;;;;;7.00;100346.00;;;;4976951;28;20330;-73
2022/04/01 02:20:11;;;;;;;1.35;1.20;;;;;6.90;100346.00;;;;4969512;28;20253;-73
2022/04/01 02:22:38;;;;;;;1.55;1.17;;;;;6.90;100351.00;;;;4968519;28;20194;-73
2022/04/01 02:25:07;;;;;;;1.70;1.30;;;;;6.90;100342.00;;;;4968478;28;20268;-73
2022/04/01 02:27:35;;;;;;;1.70;1.20;;;;;6.90;100353.00;;;;4969174;28;20695;-73
2022/04/01 02:30:10;;;;;;;1.40;1.30;;;;;6.90;100349.00;;;;4968931;28;20198;-73
2022/04/01 02:32:39;;;;;;;1.15;0.98;;;;;6.90;100353.00;;;;4970980;28;20217;-73
2022/04/01 02:35:07;;;;;;;1.65;0.93;;;;;6.90;100355.00;;;;4977634;28;20308;-73
2022/04/01 02:37:34;;;;;;;1.05;0.90;;;;;6.90;100349.00;;;;4965692;28;20237;-73
2022/04/01 02:40:02;;;;;;;1.65;1.20;;;;;7.00;100364.00;;;;4968942;28;20209;-73
2022/04/01 02:42:29;;;;;;;1.45;1.13;;;;;7.00;100359.00;;;;4969018;28;20205;-73
2022/04/01 02:44:57;;;;;;;1.63;1.20;;;;;7.00;100365.00;;;;4976323;28;20198;-73
2022/04/01 02:47:27;;;;;;;1.65;1.20;;;;;6.90;100360.00;;;;4968825;28;20194;-74
2022/04/01 02:49:56;;;;;;;1.90;1.10;;;;;6.90;100366.00;;;;4971686;28;20268;-75
2022/04/01 02:52:24;;;;;;;1.63;1.20;;;;;6.90;100368.00;;;;4986234;28;20260;-74
2022/04/01 02:54:52;;;;;;;1.17;0.93;;;;;6.90;100377.00;;;;4967774;28;20772;-74
2022/04/01 02:57:20;;;;;;;1.58;1.35;;;;;6.80;100370.00;;;;4956741;28;20234;-74
2022/04/01 02:59:48;;;;;;;1.38;1.10;;;;;6.80;100383.00;;;;4968163;28;20201;-73
2022/04/01 03:02:15;;;;;;;1.52;1.10;;;;;6.80;100374.00;;;;4968615;28;20743;-73
2022/04/01 03:04:43;;;;;;;2.05;1.23;;;;;6.80;100388.00;;;;4968830;28;20197;-74
2022/04/01 03:07:11;;;;;;;1.83;1.30;;;;;6.80;100381.00;;;;4974268;28;20233;-74
2022/04/01 03:09:38;;;;;;;1.77;1.30;;;;;6.80;100385.00;;;;4968727;28;20214;-75
2022/04/01 03:12:07;;;;;;;1.10;0.80;;;;;6.80;100383.00;;;;4968251;28;20197;-74
2022/04/01 03:14:34;;;;;;;3.75;1.27;;;;;6.80;100387.00;;;;4971300;28;21179;-73
2022/04/01 03:17:01;;;;;;;1.55;1.10;;;;;6.80;100395.00;;;;4971375;28;20973;-75
2022/04/01 03:19:29;;;;;;;1.95;1.20;;;;;6.80;100407.00;;;;4971481;28;20209;-74
2022/04/01 03:21:56;;;;;;;2.67;1.13;;;;;6.80;100403.00;;;;4970797;28;20207;-74
2022/04/01 03:24:25;;;;;;;1.25;1.00;;;;;6.80;100396.00;;;;4979297;28;20213;-73
2022/04/01 03:26:53;;;;;;;2.40;1.20;;;;;6.80;100408.00;;;;4971309;28;20234;-74
2022/04/01 03:29:23;;;;;;;1.73;1.00;;;;;6.80;100408.00;;;;4971403;28;20294;-74
2022/04/01 03:31:51;;;;;;;2.08;1.52;;;;;6.80;100406.00;;;;4970996;28;20209;-75
2022/04/01 03:34:19;;;;;;;1.25;0.95;;;;;6.80;100414.00;;;;4970366;28;20273;-74
2022/04/01 03:36:47;;;;;;;1.83;1.23;;;;;6.80;100411.00;;;;4971552;28;20205;-74
2022/04/01 03:39:14;;;;;;;1.77;1.20;;;;;6.80;100425.00;;;;4970178;28;20207;-74
2022/04/01 03:41:43;;;;;;;1.60;1.05;;;;;6.80;100432.00;;;;4977618;28;20249;-74
2022/04/01 03:44:11;;;;;;;1.42;1.23;;;;;6.90;100433.00;;;;4956309;28;20199;-75
2022/04/01 03:46:47;;;;;;;2.47;1.38;;;;;6.80;100427.00;;;;4972051;28;20202;-74
2022/04/01 03:49:21;;;;;;;1.20;0.70;;;;;6.90;100436.00;;;;4971091;28;20321;-74
2022/04/01 03:51:50;;;;;;;1.75;1.00;;;;;6.90;100430.00;;;;4970729;28;20208;-74
2022/04/01 03:54:18;;;;;;;2.60;1.45;;;;;6.90;100440.00;;;;4971049;28;20574;-72
2022/04/01 03:56:56;;;;;;;1.95;1.73;;;;;6.90;100440.00;;;;4970536;28;20198;-73
2022/04/01 03:59:26;;;;;;;3.25;1.17;;;;;6.90;100451.00;;;;4973646;28;20249;-72
2022/04/01 04:01:54;;;;;;;1.92;1.27;;;;;6.90;100448.00;;;;4968378;28;20209;-72
2022/04/01 04:04:22;;;;;;;1.25;0.88;;;;;6.90;100447.00;;;;4970819;28;20690;-72
2022/04/01 04:06:51;;;;;;;1.58;1.40;;;;;7.00;100446.00;;;;4970504;28;21057;-73
2022/04/01 04:09:20;;;;;;;1.98;1.17;;;;;6.90;100445.00;;;;4970676;28;20584;-73
2022/04/01 04:11:50;;;;;;;1.40;1.10;;;;;6.90;100460.00;;;;4970094;28;20289;-72
2022/04/01 04:14:20;;;;;;;3.47;1.40;;;;;6.90;100453.00;;;;4971480;28;20222;-72
2022/04/01 04:16:48;;;;;;;1.45;1.15;;;;;6.90;100466.00;;;;4971399;28;20233;-72
2022/04/01 04:19:23;;;;;;;2.10;1.05;;;;;6.90;100476.00;;;;4970397;28;20206;-72
2022/04/01 04:21:56;;;;;;;2.03;1.40;;;;;6.90;100471.00;;;;4969955;28;20977;-72
2022/04/01 04:24:31;;;;;;;1.55;1.13;;;;;6.90;100477.00;;;;4969595;28;20285;-73
2022/04/01 04:27:08;;;;;;;1.17;0.90;;;;;6.90;100479.00;;;;4968272;28;20205;-73
2022/04/01 04:29:43;;;;;;;1.48;1.27;;;;;7.00;100489.00;;;;4969468;28;20206;-72
2022/04/01 04:32:22;;;;;;;1.77;1.38;;;;;6.90;100490.00;;;;4971863;28;20193;-73
2022/04/01 04:34:52;;;;;;;2.20;1.05;;;;;7.00;100486.00;;;;4969828;28;20233;-73
2022/04/01 04:37:26;;;;;;;1.23;0.82;;;;;7.00;100486.00;;;;4970171;28;20599;-72
2022/04/01 04:39:54;;;;;;;2.55;1.58;;;;;7.00;100494.00;;;;4969477;28;20212;-73
2022/04/01 04:42:22;;;;;;;1.83;1.00;;;;;7.10;100500.00;;;;4970205;28;20210;-73
2022/04/01 04:44:51;;;;;;;1.30;1.20;;;;;7.10;100503.00;;;;4968722;28;20680;-73
2022/04/01 04:47:25;;;;;;;2.78;1.55;;;;;7.00;100508.00;;;;4969928;28;20260;-73
2022/04/01 04:49:55;;;;;;;2.17;1.00;;;;;7.10;100509.00;;;;4981961;28;20208;-74
2022/04/01 04:52:26;;;;;;;1.83;1.33;;;;;7.10;100511.00;;;;4982837;28;20194;-73
2022/04/01 04:54:55;;;;;;;2.13;1.20;;;;;7.10;100510.00;;;;4970715;28;20241;-73
2022/04/01 04:57:26;;;;;;;1.30;1.02;;;;;7.10;100516.00;;;;4969101;28;20661;-73
2022/04/01 04:59:57;;;;;;;1.95;1.20;;;;;7.10;100525.00;;;;4985476;28;20887;-74
2022/04/01 05:02:41;;;;;;;1.52;0.98;;;;;7.10;100520.00;;;;4975135;28;20209;-73
2022/04/01 05:05:13;;;;;;;1.80;1.15;;;;;7.10;100527.00;;;;4969884;28;20210;-73
2022/04/01 05:07:50;;;;;;;1.60;1.20;;;;;7.10;100536.00;;;;4969961;28;20198;-72
2022/04/01 05:10:22;;;;;;;1.40;1.10;;;;;7.20;100542.00;;;;4950634;29;20250;-74
2022/04/01 05:12:58;;;;;;;1.38;1.08;;;;;7.10;100541.00;;;;4967797;28;20278;-73
2022/04/01 05:15:30;;;;;;;2.67;1.15;;;;;7.20;100546.00;;;;4969332;28;20656;-73
2022/04/01 05:18:07;;;;;;;2.25;1.23;;;;;7.20;100548.00;;;;4967527;28;20631;-73
2022/04/01 05:20:38;;;;;;;2.33;1.60;;;;;7.20;100555.00;;;;4968945;28;21001;-74
2022/04/01 05:23:12;;;;;;;1.65;1.15;;;;;7.20;100558.00;;;;4974850;28;20232;-74
2022/04/01 05:25:45;;;;;;;1.83;1.33;;;;;7.20;100566.00;;;;4968369;28;20221;-74
2022/04/01 05:28:23;;;;;;;2.13;1.30;;;;;7.20;100566.00;;;;4969086;28;20253;-74
2022/04/01 05:30:57;;;;;;;1.70;1.27;;;;;7.20;100555.00;;;;4969249;28;20205;-73
2022/04/01 05:33:27;;;;;;;2.38;1.30;;;;;7.20;100582.00;;;;4969505;28;20202;-74
2022/04/01 05:35:56;;;;;;;1.88;1.30;;;;;7.20;100582.00;;;;4968766;28;20321;-74
2022/04/01 05:38:25;;;;;;;2.35;1.15;;;;;7.20;100591.00;;;;4968873;28;20198;-74
2022/04/01 05:40:56;;;;;;;2.28;1.38;;;;;7.20;100586.00;;;;4981007;28;20198;-73
2022/04/01 05:43:25;;;;;;;1.60;1.35;;;;;7.20;100601.00;;;;4973403;28;20194;-73
2022/04/01 05:45:55;;;;;;;1.77;1.30;;;;;7.20;100603.00;;;;4970383;28;20313;-73
2022/04/01 05:48:23;;;;;;;2.25;1.40;;;;;7.20;100601.00;;;;4968580;28;20580;-73
2022/04/01 05:50:51;;;;;;;2.30;1.55;;;;;7.20;100595.00;;;;4969774;28;20217;-73
2022/04/01 05:53:21;;;;;;;1.92;1.45;;;;;7.20;100603.00;;;;4967929;28;20205;-73
2022/04/01 05:55:51;;;;;;;1.95;1.23;;;;;7.20;100588.00;;;;4962990;28;20222;-74
2022/04/01 05:58:18;;;;;;;4.53;1.33;;;;;7.20;100607.00;;;;4978267;28;20190;-73
2022/04/01 06:01:02;;;;;;;1.58;1.15;;;;;7.10;100600.00;;;;4967862;28;20584;-72
2022/04/01 06:03:59;;;;;;;2.83;1.20;;;;;7.20;100609.00;;;;4968437;28;20281;-73
2022/04/01 06:06:31;;;;;;;2.90;1.08;;;;;7.20;100608.00;;;;4954460;28;20211;-73
2022/04/01 06:09:05;;;;;;;2.55;1.05;;;;;7.30;100617.00;;;;4968490;28;20209;-74
2022/04/01 06:11:42;;;;;;;1.27;1.00;;;;;7.20;100618.00;;;;4967502;28;20993;-74
2022/04/01 06:14:18;;;;;;;1.25;1.08;;;;;7.30;100632.00;;;;4974816;28;20252;-74
2022/04/01 06:16:51;;;;;;;1.65;1.00;;;;;7.30;100635.00;;;;4987693;28;20722;-74
2022/04/01 06:19:24;;;;;;;1.80;1.00;;;;;7.30;100644.00;;;;4977442;28;20205;-75
2022/04/01 06:22:05;;;;;;;1.30;1.15;;;;;7.30;100647.00;;;;4968277;28;20234;-75
2022/04/01 06:24:45;;;;;;;2.42;1.48;;;;;7.30;100642.00;;;;4968538;28;20202;-74
2022/04/01 06:27:18;;;;;;;2.15;1.45;;;;;7.30;100646.00;;;;4968586;28;21009;-74
2022/04/01 06:29:50;;;;;;;2.38;1.50;;;;;7.30;100655.00;;;;4967876;28;20204;-74
2022/04/01 06:32:27;;;;;;;2.05;1.15;;;;;7.30;100661.00;;;;4983325;28;20209;-75
2022/04/01 06:35:09;;;;;;;2.38;1.38;;;;;7.30;100663.00;;;;4968149;28;20723;-75
2022/04/01 06:37:43;;;;;;;2.17;1.60;;;;;7.30;100662.00;;;;4968561;28;20209;-75
2022/04/01 06:40:14;;;;;;;1.65;1.13;;;;;7.40;100667.00;;;;4969299;28;20617;-75
2022/04/01 06:42:44;;;;;;;2.45;1.45;;;;;7.40;100666.00;;;;4968663;28;20205;-75
2022/04/01 06:45:13;;;;;;;2.70;1.40;;;;;7.40;100672.00;;;;4966994;28;20210;-75
2022/04/01 06:47:44;;;;;;;2.33;1.65;;;;;7.40;100670.00;;;;4972469;28;20194;-76
2022/04/01 06:50:12;;;;;;;1.75;1.33;;;;;7.50;100673.00;;;;4975074;28;20878;-75
2022/04/01 06:52:40;;;;;;;2.17;1.48;;;;;7.50;100684.00;;;;4972330;28;20249;-75
2022/04/01 06:55:09;;;;;;;2.83;1.83;;;;;7.50;100702.00;;;;4971081;28;20218;-73
2022/04/01 06:57:36;;;;;;;1.67;1.30;;;;;7.50;100696.00;;;;4971312;28;20289;-76
2022/04/01 07:00:08;;;;;;;1.67;1.40;;;;;7.50;100700.00;;;;4971088;28;20202;-75
2022/04/01 07:02:35;;;;;;;1.77;1.30;;;;;7.50;100703.00;;;;4971678;28;20233;-76
2022/04/01 07:05:05;;;;;;;2.38;1.00;;;;;7.60;100691.00;;;;4977279;28;20229;-75
2022/04/01 07:07:35;;;;;;;2.35;1.10;;;;;7.60;100701.00;;;;4971073;28;20218;-76
2022/04/01 07:10:03;;;;;;;1.67;1.05;;;;;7.60;100703.00;;;;4971615;28;20375;-75
2022/04/01 07:12:32;;;;;;;1.85;1.35;;;;;7.60;100718.00;;;;4968977;28;20194;-75
2022/04/01 07:14:59;;;;;;;3.33;1.20;;;;;7.70;100719.00;;;;4970858;28;20697;-75
2022/04/01 07:17:26;;;;;;;1.35;0.77;;;;;7.70;100718.00;;;;4971170;28;20355;-75
2022/04/01 07:19:54;;;;;;;1.23;0.90;;;;;7.70;100719.00;;;;4971355;28;20210;-75
2022/04/01 07:22:22;;;;;;;3.08;1.70;;;;;7.80;100722.00;;;;4978595;28;20205;-76
2022/04/01 07:24:50;;;;;;;1.70;0.90;;;;;7.80;100728.00;;;;4974068;28;20206;-75
2022/04/01 07:27:17;;;;;;;1.95;1.13;;;;;7.90;100725.00;;;;4971173;28;20206;-75
2022/04/01 07:29:44;;;;;;;1.85;1.08;;;;;8.00;100727.00;;;;4970141;28;20213;-75
2022/04/01 07:32:30;;;;;;;1.52;1.10;;;;;8.00;100729.00;;;;4969937;28;20932;-75
2022/04/01 07:34:58;;;;;;;1.83;0.93;;;;;8.10;100726.00;;;;4971650;28;20234;-76
2022/04/01 07:37:27;;;;;;;1.42;1.08;;;;;8.20;100729.00;;;;4970871;28;20210;-75
2022/04/01 07:39:56;;;;;;;1.58;1.08;;;;;8.20;100726.00;;;;4963019;28;20207;-76
2022/04/01 07:42:24;;;;;;;2.67;1.02;;;;;8.30;100724.00;;;;4965193;28;20210;-75
2022/04/01 07:44:52;;;;;;;1.90;1.08;;;;;8.40;100721.00;;;;4970871;28;20194;-75
2022/04/01 07:47:21;;;;;;;1.63;1.00;;;;;8.40;100724.00;;;;4971248;28;20214;-75
2022/04/01 07:49:49;;;;;;;2.25;0.80;;;;;8.50;100729.00;;;;4971380;28;20230;-75
2022/04/01 07:52:18;;;;;;;1.48;1.02;;;;;8.50;100737.00;;;;4971262;28;20214;-75
2022/04/01 07:54:48;;;;;;;1.45;0.88;;;;;8.60;100740.00;;;;4966419;28;20198;-75
2022/04/01 07:57:17;;;;;;;1.38;0.82;;;;;8.70;100744.00;;;;4985641;28;20304;-76
2022/04/01 07:59:46;;;;;;;1.65;1.02;;;;;8.70;100744.00;;;;4973030;28;20285;-76
2022/04/01 08:02:14;;;;;;;1.40;0.90;;;;;8.80;100750.00;;;;4970553;28;20198;-77
2022/04/01 08:04:41;;;;;;;1.67;0.77;;;;;8.90;100743.00;;;;4970332;28;20689;-77
2022/04/01 08:07:08;;;;;;;1.30;0.90;;;;;9.00;100751.00;;;;4970055;28;20210;-76
2022/04/01 08:09:36;;;;;;;1.83;0.60;;;;;9.10;100753.00;;;;4972591;28;20293;-76
2022/04/01 08:12:05;;;;;;;1.45;0.85;;;;;9.20;100749.00;;;;4971039;28;20603;-77
2022/04/01 08:14:36;;;;;;;3.22;1.00;;;;;9.30;100747.00;;;;4979513;28;20199;-76
2022/04/01 08:17:04;;;;;;;1.98;1.02;;;;;9.40;100754.00;;;;4970627;28;20234;-76
2022/04/01 08:19:31;;;;;;;3.55;1.30;;;;;9.50;100758.00;;;;4971418;28;20206;-77
2022/04/01 08:22:01;;;;;;;1.40;0.68;;;;;9.50;100755.00;;;;4971983;28;20368;-76
2022/04/01 08:24:28;;;;;;;1.38;0.88;;;;;9.60;100761.00;;;;4968814;28;20210;-77
2022/04/01 08:26:57;;;;;;;2.25;0.63;;;;;9.60;100764.00;;;;4969636;28;20206;-76
2022/04/01 08:29:26;;;;;;;2.35;1.08;;;;;9.70;100775.00;;;;4969614;28;20202;-76
2022/04/01 08:31:53;;;;;;;1.35;0.50;;;;;9.70;100774.00;;;;4970373;28;20214;-76
2022/04/01 08:34:20;;;;;;;3.03;0.70;;;;;9.80;100776.00;;;;4971189;28;20208;-75
2022/04/01 08:36:48;;;;;;;2.15;0.95;;;;;9.80;100777.00;;;;4970722;28;20226;-76
2022/04/01 08:39:15;;;;;;;0.73;0.40;;;;;9.80;100794.00;;;;4970271;28;20205;-75
2022/04/01 08:41:42;;;;;;;0.98;0.60;;;;;9.80;100787.00;;;;4968518;28;20669;-75
2022/04/01 08:44:12;;;;;;;1.75;0.65;;;;;9.80;100794.00;;;;4969069;28;20203;-76
2022/04/01 08:46:41;;;;;;;3.05;0.90;;;;;9.80;100804.00;;;;4957113;28;20210;-77
2022/04/01 08:49:08;;;;;;;1.65;0.50;;;;;9.70;100812.00;;;;4970094;28;20213;-76
2022/04/01 08:51:36;;;;;;;1.13;0.50;;;;;9.70;100812.00;;;;4971055;28;20205;-77
2022/04/01 08:54:04;;;;;;;1.02;0.63;;;;;9.70;100814.00;;;;4970840;28;20194;-74
2022/04/01 08:56:32;;;;;;;1.10;0.77;;;;;9.60;100811.00;;;;4968906;28;20230;-75
2022/04/01 08:58:59;;;;;;;1.83;0.40;;;;;9.60;100816.00;;;;4970143;28;20190;-75
2022/04/01 09:01:40;;;;;;;0.82;0.60;;;;;9.60;100824.00;;;;4969369;28;20201;-75
2022/04/01 09:04:17;;;;;;;0.93;0.60;;;;;9.60;100827.00;;;;4969175;28;20286;-75
2022/04/01 09:06:45;;;;;;;2.28;0.82;;;;;9.70;100823.00;;;;4967221;28;20325;-75
2022/04/01 09:09:24;;;;;;;0.90;0.57;;;;;9.60;100839.00;;;;4968758;28;20215;-75
2022/04/01 09:12:08;;;;;;;1.88;0.77;;;;;9.70;100836.00;;;;4967847;28;20214;-76
2022/04/01 09:14:35;;;;;;;1.80;0.80;;;;;9.80;100835.00;;;;4966249;28;20290;-76
2022/04/01 09:17:05;;;;;;;1.77;0.80;;;;;9.80;100837.00;;;;4967720;28;20237;-76
2022/04/01 09:19:33;;;;;;;1.40;0.70;;;;;9.90;100832.00;;;;4969713;28;20258;-75
2022/04/01 09:22:19;;;;;;;1.67;0.60;;;;;9.90;100844.00;;;;4968289;28;20194;-75
2022/04/01 09:24:55;;;;;;;2.97;0.75;;;;;9.90;100854.00;;;;4968593;28;20203;-75
2022/04/01 09:27:40;;;;;;;0.82;0.55;;;;;9.90;100852.00;;;;4970493;28;20744;-75
2022/04/01 09:30:10;;;;;;;1.35;0.60;;;;;10.10;100857.00;;;;4969375;28;20296;-76
2022/04/01 09:32:40;;;;;;;1.45;0.75;;;;;10.10;100857.00;;;;4970028;28;20205;-76
2022/04/01 09:35:11;;;;;;;1.40;0.73;;;;;10.20;100866.00;;;;4972217;28;20210;-76
2022/04/01 09:37:43;;;;;;;0.88;0.77;;;;;10.20;100892.00;;;;4967342;28;20245;-76
2022/04/01 09:40:13;;;;;;;2.92;1.10;;;;;10.20;100867.00;;;;4962802;28;20546;-77
2022/04/01 09:42:40;;;;;;;1.55;0.80;;;;;10.30;100880.00;;;;4963840;28;20249;-77
2022/04/01 09:45:08;;;;;;;0.80;0.57;;;;;10.30;100866.00;;;;4968275;28;20201;-76
2022/04/01 09:47:39;;;;;;;1.45;0.90;;;;;10.40;100877.00;;;;4968672;28;20669;-77
2022/04/01 09:50:15;;;;;;;1.00;0.70;;;;;10.40;100880.00;;;;4965196;28;20201;-76
2022/04/01 09:52:42;;;;;;;3.08;0.85;;;;;10.60;100875.00;;;;4965438;28;20221;-76
2022/04/01 09:55:10;;;;;;;2.08;0.70;;;;;10.70;100880.00;;;;4968372;28;20303;-77
2022/04/01 09:57:38;;;;;;;0.98;0.68;;;;;10.80;100881.00;;;;4970965;28;20229;-77
2022/04/01 10:00:09;;;;;;;2.08;1.15;;;;;10.90;100884.00;;;;4960082;28;20206;-78
2022/04/01 10:02:39;;;;;;;1.63;0.93;;;;;10.90;100893.00;;;;4966612;28;20627;-75
2022/04/01 10:05:07;;;;;;;1.33;1.00;;;;;11.00;100891.00;;;;4969796;28;20624;-76
2022/04/01 10:07:36;;;;;;;0.90;0.85;;;;;11.10;100896.00;;;;4969458;28;20289;-77
2022/04/01 10:10:06;;;;;;;1.38;1.00;;;;;11.10;100899.00;;;;4966797;28;20210;-77
2022/04/01 10:12:42;;;;;;;1.27;1.08;;;;;11.10;100901.00;;;;4969659;28;20274;-77
2022/04/01 10:15:11;;;;;;;1.73;0.98;;;;;11.10;100905.00;;;;4967009;28;20214;-77
2022/04/01 10:17:41;;;;;;;1.52;1.05;;;;;11.10;100903.00;;;;4966570;28;20680;-77
2022/04/01 10:20:12;;;;;;;2.72;1.45;;;;;11.10;100913.00;;;;4970090;28;20202;-77
2022/04/01 10:22:42;;;;;;;1.58;1.10;;;;;11.10;100912.00;;;;4967528;28;20582;-77
2022/04/01 10:25:16;;;;;;;2.45;1.02;;;;;11.00;100914.00;;;;4969113;28;20210;-77
2022/04/01 10:27:48;;;;;;;1.55;1.02;;;;;11.10;100911.00;;;;4968598;28;20199;-76
2022/04/01 10:30:17;;;;;;;3.33;1.30;;;;;11.00;100904.00;;;;4970584;28;20194;-76
2022/04/01 10:32:47;;;;;;;1.40;1.13;;;;;11.00;100912.00;;;;4967589;28;20194;-78
2022/04/01 10:35:26;;;;;;;2.22;1.50;;;;;10.90;100920.00;;;;4969093;28;20206;-78
2022/04/01 10:37:55;;;;;;;2.63;1.25;;;;;11.00;100913.00;;;;4968614;28;20298;-77
2022/04/01 10:40:25;;;;;;;1.45;1.10;;;;;11.00;100920.00;;;;4961861;28;20225;-77
2022/04/01 10:42:53;;;;;;;2.60;1.35;;;;;11.00;100922.00;;;;4964901;28;20226;-76
2022/04/01 10:45:25;;;;;;;1.65;1.10;;;;;11.00;100927.00;;;;4968775;28;20282;-77
2022/04/01 10:53:39;;;;;;;3.92;1.33;;;;;10.90;100923.00;;;;4968623;28;20273;-76
2022/04/01 10:56:33;;;;;;;1.77;1.30;;;;;10.80;100920.00;;;;4969347;28;20663;-76
2022/04/01 10:59:19;;;;;;;1.98;1.52;;;;;10.80;100933.00;;;;4968608;28;20239;-76
2022/04/01 11:02:05;;;;;;;2.70;1.80;;;;;10.80;100938.00;;;;4965985;28;20213;-77
2022/04/01 11:04:37;;;;;;;3.15;1.63;;;;;10.90;100934.00;;;;4975151;28;20656;-77
2022/04/01 11:07:06;;;;;;;2.38;1.65;;;;;11.00;100922.00;;;;4969152;28;20864;-77
2022/04/01 11:09:38;;;;;;;2.47;1.83;;;;;11.10;100922.00;;;;4969130;28;20253;-77
2022/04/01 11:12:27;;;;;;;3.45;2.25;;;;;11.00;100918.00;;;;4969451;28;20222;-76
2022/04/01 11:15:26;;;;;;;2.33;1.92;;;;;11.10;100936.00;;;;4967966;28;20198;-76
2022/04/01 11:18:10;;;;;;;3.67;1.85;;;;;11.00;100931.00;;;;4968901;28;20716;-77
2022/04/01 11:20:40;;;;;;;2.80;1.85;;;;;11.10;100936.00;;;;4969291;28;20214;-77
2022/04/01 11:23:13;;;;;;;2.63;2.20;;;;;11.10;100941.00;;;;4988826;28;20198;-77
2022/04/01 11:25:51;;;;;;;3.13;1.70;;;;;11.10;100936.00;;;;4988878;28;20209;-77
2022/04/01 11:28:18;;;;;;;2.65;1.92;;;;;11.20;100943.00;;;;4980708;28;20206;-76
2022/04/01 11:31:03;;;;;;;2.63;2.03;;;;;11.20;100948.00;;;;4968706;28;20203;-77
2022/04/01 11:33:30;;;;;;;2.75;1.95;;;;;11.30;100945.00;;;;4970002;28;20204;-78
2022/04/01 11:35:59;;;;;;;3.22;2.08;;;;;11.30;100944.00;;;;4972228;28;20213;-77
2022/04/01 11:38:27;;;;;;;3.10;1.92;;;;;11.30;100956.00;;;;4971140;28;20209;-77
2022/04/01 11:40:56;;;;;;;2.28;1.75;;;;;11.30;100956.00;;;;4972223;28;20209;-78
2022/04/01 11:43:25;;;;;;;3.55;2.20;;;;;11.40;100957.00;;;;4972802;28;20202;-77
2022/04/01 11:45:57;;;;;;;3.20;2.33;;;;;11.40;100960.00;;;;4971546;28;20198;-78
2022/04/01 11:48:28;;;;;;;2.13;1.77;;;;;11.50;100956.00;;;;4971246;28;20298;-78
2022/04/01 11:51:00;;;;;;;2.05;1.80;;;;;11.60;100947.00;;;;4972192;28;20199;-78
2022/04/01 11:53:29;;;;;;;3.08;2.05;;;;;11.60;100953.00;;;;4976959;28;20213;-78
2022/04/01 11:55:58;;;;;;;3.03;2.33;;;;;11.70;100955.00;;;;4971151;28;20329;-78
2022/04/01 11:58:26;;;;;;;2.42;2.13;;;;;11.70;100959.00;;;;4972394;28;20541;-77
2022/04/01 12:00:53;;;;;;;3.63;2.20;;;;;11.80;100957.00;;;;4972034;28;20209;-76
2022/04/01 12:03:21;;;;;;;2.78;2.10;;;;;11.80;100968.00;;;;4972107;28;20190;-76
2022/04/01 12:08:41;;;;;;;3.28;2.75;;;;;11.70;100964.00;;;;4967096;28;20205;-76
2022/04/01 12:08:43;;;;;;;3.10;2.53;;;;;11.80;100970.00;;;;4967910;28;20201;-76
2022/04/01 12:11:10;;;;;;;4.65;2.33;;;;;11.80;100973.00;;;;4975284;28;20269;-76
2022/04/01 12:13:48;;;;;;;4.05;2.97;;;;;11.70;100976.00;;;;4969655;28;20198;-77
2022/04/01 12:16:16;;;;;;;3.55;2.78;;;;;11.80;100983.00;;;;4960134;28;20329;-75
2022/04/01 12:18:47;;;;;;;3.33;2.65;;;;;11.70;100973.00;;;;4968801;28;20293;-74
2022/04/01 12:21:17;;;;;;;3.50;2.55;;;;;11.70;100977.00;;;;4968167;28;20620;-73
2022/04/01 12:23:48;;;;;;;4.63;3.10;;;;;11.70;100984.00;;;;4968011;28;20232;-75
2022/04/01 12:26:17;;;;;;;3.95;2.47;;;;;11.80;100983.00;;;;4970292;28;20198;-76
2022/04/01 12:28:48;;;;;;;3.55;2.75;;;;;11.80;100985.00;;;;4981725;28;20575;-75
2022/04/01 12:31:19;;;;;;;3.88;2.92;;;;;11.70;100982.00;;;;4983424;28;20194;-75
2022/04/01 12:33:48;;;;;;;3.03;2.33;;;;;11.80;101000.00;;;;4970375;28;20635;-75
2022/04/01 12:36:18;;;;;;;3.45;2.70;;;;;11.80;100982.00;;;;4969133;28;20853;-76
2022/04/01 12:39:02;;;;;;;4.97;2.80;;;;;11.70;100981.00;;;;4968352;28;20257;-75
2022/04/01 12:41:29;;;;;;;3.50;2.67;;;;;11.80;100984.00;;;;4960245;28;20203;-75
2022/04/01 12:43:59;;;;;;;6.68;2.45;;;;;11.80;100990.00;;;;4966862;28;20222;-73